createdAt,value
2023-02-04T00:00:37.505Z,169.67
2023-02-04T00:03:06.535Z,160.23
2023-02-04T00:05:35.067Z,158.40
2023-02-04T00:08:05.161Z,167.27
2023-02-04T00:10:33.959Z,155.27
2023-02-04T00:13:03.008Z,156.13
2023-02-04T00:15:32.004Z,143.47
2023-02-04T00:18:00.416Z,130.97
2023-02-04T00:20:29.114Z,126.37
2023-02-04T00:22:57.636Z,122.83
2023-02-04T00:25:27.453Z,117.63
2023-02-04T00:27:55.849Z,116.33
2023-02-04T00:30:24.278Z,111.93
2023-02-04T00:32:54.971Z,122.17
2023-02-04T00:35:23.535Z,117.27
2023-02-04T00:37:52.079Z,125.63
2023-02-04T00:40:20.749Z,124.93
2023-02-04T00:42:50.574Z,130.40
2023-02-04T00:45:19.049Z,138.77
2023-02-04T00:47:47.467Z,139.53
2023-02-04T00:50:18.097Z,138.00
2023-02-04T00:52:46.906Z,129.57
2023-02-04T00:55:17.124Z,128.67
2023-02-04T00:57:47.072Z,134.27
2023-02-04T01:00:17.705Z,131.77
2023-02-04T01:02:46.194Z,137.97
2023-02-04T01:05:14.665Z,139.20
2023-02-04T01:07:43.203Z,137.50
2023-02-04T01:10:11.911Z,142.97
2023-02-04T01:12:40.818Z,137.23
2023-02-04T01:15:09.721Z,145.90
2023-02-04T01:17:39.736Z,152.67
2023-02-04T01:20:08.504Z,162.40
2023-02-04T01:22:36.962Z,157.70
2023-02-04T01:25:05.443Z,148.57
2023-02-04T01:27:33.898Z,171.57
2023-02-04T01:30:02.342Z,159.40
2023-02-04T01:32:30.749Z,170.10
2023-02-04T01:35:00.536Z,169.17
2023-02-04T01:37:28.955Z,173.13
2023-02-04T01:39:57.352Z,177.97
2023-02-04T01:42:25.876Z,171.43
2023-02-04T01:44:55.132Z,177.33
2023-02-04T01:47:24.819Z,171.73
2023-02-04T01:49:54.198Z,183.17
2023-02-04T01:52:25.155Z,175.27
2023-02-04T01:54:53.753Z,177.33
2023-02-04T01:57:22.157Z,188.53
2023-02-04T01:59:52.980Z,185.23
2023-02-04T02:02:43.886Z,181.20
2023-02-04T02:05:13.589Z,185.20
2023-02-04T02:07:43.483Z,185.63
2023-02-04T02:10:13.667Z,180.30
2023-02-04T02:12:42.421Z,170.30
2023-02-04T02:15:11.879Z,159.97
2023-02-04T02:17:40.727Z,160.17
2023-02-04T02:20:09.693Z,144.90
2023-02-04T02:22:41.625Z,132.73
2023-02-04T02:25:13.299Z,124.57
2023-02-04T02:27:41.737Z,113.80
2023-02-04T02:30:11.549Z,104.77
2023-02-04T02:32:40.435Z,92.53
2023-02-04T02:35:09.534Z,85.80
2023-02-04T02:37:38.008Z,87.67
2023-02-04T02:40:06.874Z,76.53
2023-02-04T02:42:36.939Z,79.13
2023-02-04T02:45:05.833Z,75.43
2023-02-04T02:47:34.571Z,78.43
2023-02-04T02:50:02.994Z,70.13
2023-02-04T02:52:31.379Z,71.50
2023-02-04T02:54:59.794Z,74.87
2023-02-04T02:57:28.201Z,75.53
2023-02-04T02:59:57.934Z,75.37
2023-02-04T03:02:26.505Z,76.57
2023-02-04T03:04:58.339Z,77.53
2023-02-04T03:07:26.822Z,81.10
2023-02-04T03:09:55.246Z,80.57
2023-02-04T03:12:23.790Z,87.93
2023-02-04T03:14:52.330Z,88.23
2023-02-04T03:17:22.873Z,89.87
2023-02-04T03:19:51.436Z,95.00
2023-02-04T03:22:19.889Z,93.23
2023-02-04T03:24:48.328Z,102.50
2023-02-04T03:27:17.022Z,96.30
2023-02-04T03:29:45.449Z,102.77
2023-02-04T03:32:13.930Z,110.50
2023-02-04T03:34:43.732Z,119.77
2023-02-04T03:37:12.122Z,118.97
2023-02-04T03:39:40.572Z,118.43
2023-02-04T03:42:08.968Z,124.03
2023-02-04T03:44:37.379Z,121.83
2023-02-04T03:47:05.815Z,109.17
2023-02-04T03:49:35.899Z,119.00
2023-02-04T03:52:06.442Z,113.30
2023-02-04T03:54:34.842Z,126.43
2023-02-04T03:57:03.216Z,139.27
2023-02-04T03:59:31.699Z,139.47
2023-02-04T04:02:00.145Z,135.20
2023-02-04T04:04:28.580Z,136.63
2023-02-04T04:06:56.999Z,138.17
2023-02-04T04:09:26.770Z,170.27
2023-02-04T04:11:56.060Z,151.27
2023-02-04T04:14:24.549Z,148.13
2023-02-04T04:16:52.942Z,149.27
2023-02-04T04:19:21.320Z,149.30
2023-02-04T04:21:49.722Z,143.87
2023-02-04T04:24:18.109Z,143.30
2023-02-04T04:26:47.884Z,145.13
2023-02-04T04:29:16.319Z,144.97
2023-02-04T04:31:45.012Z,143.30
2023-02-04T04:34:13.529Z,135.40
2023-02-04T04:36:41.967Z,139.37
2023-02-04T04:39:10.378Z,136.53
2023-02-04T04:41:38.779Z,128.83
2023-02-04T04:44:08.798Z,135.90
2023-02-04T04:46:37.239Z,125.40
2023-02-04T04:49:05.658Z,128.60
2023-02-04T04:51:34.209Z,124.90
2023-02-04T04:54:02.607Z,122.70
2023-02-04T04:56:31.014Z,122.07
2023-02-04T04:58:59.712Z,141.63
2023-02-04T05:01:29.472Z,123.13
2023-02-04T05:03:57.863Z,125.23
2023-02-04T05:06:26.457Z,127.00
2023-02-04T05:08:55.028Z,134.93
2023-02-04T05:11:23.517Z,124.00
2023-02-04T05:13:51.994Z,114.80
2023-02-04T05:16:20.484Z,111.93
2023-02-04T05:18:50.316Z,116.73
2023-02-04T05:21:18.739Z,120.50
2023-02-04T05:23:47.135Z,121.77
2023-02-04T05:26:29.144Z,129.43
2023-02-04T05:29:00.447Z,129.70
2023-02-04T05:31:29.157Z,120.63
2023-02-04T05:33:58.929Z,120.10
2023-02-04T05:36:27.355Z,123.77
2023-02-04T05:38:55.774Z,129.97
2023-02-04T05:41:24.159Z,125.10
2023-02-04T05:43:52.578Z,118.83
2023-02-04T05:46:21.004Z,130.37
2023-02-04T05:48:49.410Z,120.50
2023-02-04T05:51:19.257Z,125.23
2023-02-04T05:53:47.660Z,119.80
2023-02-04T05:56:16.197Z,118.60
2023-02-04T05:58:44.638Z,112.27
2023-02-04T06:01:13.055Z,130.60
2023-02-04T06:03:41.550Z,119.83
2023-02-04T06:06:10.592Z,110.30
2023-02-04T06:08:40.389Z,104.43
2023-02-04T06:11:08.798Z,104.83
2023-02-04T06:13:37.322Z,104.67
2023-02-04T06:16:05.810Z,104.23
2023-02-04T06:18:34.203Z,105.90
2023-02-04T06:21:04.700Z,108.67
2023-02-04T06:23:34.571Z,103.37
2023-02-04T06:26:04.420Z,103.83
2023-02-04T06:28:32.845Z,101.67
2023-02-04T06:31:01.308Z,90.73
2023-02-04T06:33:29.824Z,99.63
2023-02-04T06:35:58.258Z,96.70
2023-02-04T06:38:26.691Z,88.43
2023-02-04T06:40:55.313Z,92.70
2023-02-04T06:43:25.577Z,89.53
2023-02-04T06:45:54.010Z,94.93
2023-02-04T06:48:22.456Z,98.77
2023-02-04T06:50:52.064Z,92.37
2023-02-04T06:53:20.712Z,87.27
2023-02-04T06:55:49.142Z,87.33
2023-02-04T06:58:17.559Z,88.23
2023-02-04T07:00:47.315Z,86.57
2023-02-04T07:03:15.773Z,89.27
2023-02-04T07:05:44.257Z,91.30
2023-02-04T07:08:12.747Z,89.40
2023-02-04T07:10:41.128Z,111.37
2023-02-04T07:13:09.583Z,116.47
2023-02-04T07:15:38.143Z,111.40
2023-02-04T07:18:07.955Z,118.67
2023-02-04T07:20:36.385Z,122.13
2023-02-04T07:23:04.797Z,120.70
2023-02-04T07:25:33.212Z,127.73
2023-02-04T07:28:03.827Z,125.10
2023-02-04T07:30:32.609Z,117.77
2023-02-04T07:33:01.205Z,119.73
2023-02-04T07:35:30.982Z,127.93
2023-02-04T07:37:59.401Z,133.33
2023-02-04T07:40:27.842Z,134.90
2023-02-04T07:42:56.268Z,122.73
2023-02-04T07:45:24.778Z,130.13
2023-02-04T07:47:53.153Z,138.30
2023-02-04T07:50:21.554Z,149.23
2023-02-04T07:52:51.325Z,128.50
2023-02-04T07:55:19.856Z,141.40
2023-02-04T07:57:48.280Z,153.60
2023-02-04T08:00:17.068Z,142.73
2023-02-04T08:02:45.494Z,143.53
2023-02-04T08:05:14.162Z,119.07
2023-02-04T08:07:42.637Z,115.93
2023-02-04T08:10:13.211Z,118.53
2023-02-04T08:12:41.691Z,143.30
2023-02-04T08:15:10.746Z,162.00
2023-02-04T08:17:39.164Z,149.77
2023-02-04T08:20:09.792Z,152.70
2023-02-04T08:22:38.229Z,157.43
2023-02-04T08:25:06.759Z,165.73
2023-02-04T08:27:36.577Z,151.83
2023-02-04T08:30:05.378Z,156.13
2023-02-04T08:32:34.181Z,156.83
2023-02-04T08:35:02.626Z,162.27
2023-02-04T08:37:31.034Z,158.93
2023-02-04T08:39:59.448Z,159.87
2023-02-04T08:42:27.972Z,166.97
2023-02-04T08:44:57.858Z,161.07
2023-02-04T08:47:26.275Z,155.67
2023-02-04T08:49:54.732Z,164.07
2023-02-04T08:52:23.134Z,164.00
2023-02-04T08:54:51.569Z,180.40
2023-02-04T08:57:20.100Z,185.57
2023-02-04T08:59:48.503Z,180.27
2023-02-04T09:02:18.348Z,175.63
2023-02-04T09:04:46.879Z,152.37
2023-02-04T09:07:15.276Z,144.80
2023-02-04T09:09:43.702Z,162.07
2023-02-04T09:12:12.354Z,164.90
2023-02-04T09:14:40.825Z,178.23
2023-02-04T09:17:09.432Z,178.80
2023-02-04T09:19:39.374Z,193.33
2023-02-04T09:22:07.808Z,185.37
2023-02-04T09:24:36.222Z,195.70
2023-02-04T09:27:04.913Z,189.03
2023-02-04T09:29:33.407Z,200.27
2023-02-04T09:32:01.858Z,218.77
2023-02-04T09:34:30.328Z,197.20
2023-02-04T09:37:00.172Z,212.37
2023-02-04T09:39:28.591Z,195.13
2023-02-04T09:41:57.167Z,194.87
2023-02-04T09:44:26.748Z,208.13
2023-02-04T09:46:56.389Z,203.23
2023-02-04T09:49:25.098Z,190.47
2023-02-04T09:51:54.261Z,211.87
2023-02-04T09:54:24.808Z,211.87
2023-02-04T09:56:54.089Z,230.27
2023-02-04T09:59:23.476Z,219.50
2023-02-04T10:01:56.828Z,217.27
2023-02-04T10:04:25.939Z,197.17
2023-02-04T10:06:54.389Z,187.03
2023-02-04T10:09:24.251Z,184.43
2023-02-04T10:11:52.880Z,209.20
2023-02-04T10:14:23.227Z,201.97
2023-02-04T10:16:54.461Z,228.57
2023-02-04T10:19:22.939Z,226.33
2023-02-04T10:21:51.423Z,222.70
2023-02-04T10:24:21.730Z,219.17
2023-02-04T10:26:51.506Z,230.67
2023-02-04T10:29:20.701Z,233.80
2023-02-04T10:31:50.174Z,221.50
2023-02-04T10:34:19.852Z,230.43
2023-02-04T10:36:49.217Z,224.23
2023-02-04T10:39:18.342Z,220.03
2023-02-04T10:41:49.662Z,233.73
2023-02-04T10:44:21.155Z,216.77
2023-02-04T10:46:49.648Z,221.07
2023-02-04T10:49:22.682Z,214.13
2023-02-04T10:51:52.750Z,216.00
2023-02-04T10:54:31.191Z,212.80
2023-02-04T10:57:00.616Z,212.87
2023-02-04T10:59:30.633Z,242.67
2023-02-04T11:01:59.651Z,244.97
2023-02-04T11:04:29.417Z,219.17
2023-02-04T11:06:57.800Z,216.60
2023-02-04T11:09:26.300Z,229.20
2023-02-04T11:11:54.892Z,240.43
2023-02-04T11:14:28.270Z,205.87
2023-02-04T11:17:01.036Z,212.50
2023-02-04T11:19:34.012Z,219.20
2023-02-04T11:22:09.304Z,207.97
2023-02-04T11:24:37.744Z,215.33
2023-02-04T11:27:10.098Z,209.40
2023-02-04T11:29:39.286Z,228.47
2023-02-04T11:32:15.506Z,173.83
2023-02-04T11:34:49.114Z,212.50
2023-02-04T11:37:19.308Z,237.00
2023-02-04T11:39:48.467Z,225.80
2023-02-04T11:42:28.719Z,214.93
2023-02-04T11:44:58.165Z,210.93
2023-02-04T11:47:28.596Z,187.10
2023-02-04T11:49:58.309Z,204.07
2023-02-04T11:52:26.740Z,209.70
2023-02-04T11:54:55.775Z,226.10
2023-02-04T11:57:24.462Z,209.40
2023-02-04T11:59:52.879Z,186.10
2023-02-04T12:02:21.879Z,211.83
2023-02-04T12:04:58.785Z,200.37
2023-02-04T12:07:28.362Z,228.77
2023-02-04T12:09:56.913Z,214.33
2023-02-04T12:12:26.396Z,179.40
2023-02-04T12:15:04.037Z,199.43
2023-02-04T12:17:32.471Z,212.03
2023-02-04T12:20:02.262Z,216.10
2023-02-04T12:22:30.663Z,217.30
2023-02-04T12:24:59.108Z,183.40
2023-02-04T12:27:27.498Z,197.10
2023-02-04T12:29:55.890Z,217.20
2023-02-04T12:32:24.312Z,210.60
2023-02-04T12:34:52.735Z,206.57
2023-02-04T12:37:22.552Z,192.93
2023-02-04T12:39:51.091Z,168.53
2023-02-04T12:42:19.460Z,194.23
2023-02-04T12:44:47.832Z,198.93
2023-02-04T12:47:16.269Z,216.87
2023-02-04T12:49:44.766Z,218.20
2023-02-04T12:52:13.170Z,177.10
2023-02-04T12:54:43.768Z,200.30
2023-02-04T12:57:12.187Z,221.27
2023-02-04T12:59:40.568Z,213.17
2023-02-04T13:02:09.019Z,167.83
2023-02-04T13:04:37.512Z,214.93
2023-02-04T13:07:07.283Z,212.53
2023-02-04T13:09:35.735Z,202.80
2023-02-04T13:12:06.001Z,182.53
2023-02-04T13:14:34.624Z,206.53
2023-02-04T13:17:03.064Z,225.57
2023-02-04T13:19:32.499Z,223.87
2023-02-04T13:22:01.278Z,176.63
2023-02-04T13:24:30.070Z,214.07
2023-02-04T13:26:58.452Z,216.60
2023-02-04T13:29:28.285Z,175.43
2023-02-04T13:31:56.830Z,200.67
2023-02-04T13:34:25.238Z,218.40
2023-02-04T13:36:54.054Z,202.73
2023-02-04T13:39:22.512Z,167.00
2023-02-04T13:41:50.928Z,213.50
2023-02-04T13:44:19.376Z,207.47
2023-02-04T13:46:49.459Z,176.63
2023-02-04T13:49:17.952Z,200.83
2023-02-04T13:51:46.361Z,195.63
2023-02-04T13:54:14.949Z,176.10
2023-02-04T13:56:43.388Z,170.10
2023-02-04T13:59:11.766Z,191.07
2023-02-04T14:01:40.191Z,190.30
2023-02-04T14:04:09.992Z,171.40
2023-02-04T14:06:43.607Z,177.63
2023-02-04T14:09:12.403Z,186.17
2023-02-04T14:11:40.936Z,180.93
2023-02-04T14:14:09.506Z,177.53
2023-02-04T14:16:38.144Z,196.40
2023-02-04T14:19:07.320Z,186.90
2023-02-04T14:21:37.377Z,174.33
2023-02-04T14:24:05.997Z,213.13
2023-02-04T14:26:34.418Z,199.30
2023-02-04T14:29:04.444Z,188.03
2023-02-04T14:31:33.023Z,208.70
2023-02-04T14:34:01.460Z,210.33
2023-02-04T14:36:29.889Z,211.27
2023-02-04T14:38:59.668Z,175.70
2023-02-04T14:41:30.125Z,220.50
2023-02-04T14:43:58.611Z,205.27
2023-02-04T14:46:27.090Z,220.50
2023-02-04T14:48:55.515Z,191.67
2023-02-04T14:51:24.355Z,202.80
2023-02-04T14:53:52.765Z,222.23
2023-02-04T14:56:22.568Z,190.80
2023-02-04T14:58:50.982Z,164.03
2023-02-04T15:01:19.956Z,210.70
2023-02-04T15:03:48.374Z,202.40
2023-02-04T15:06:16.825Z,175.20
2023-02-04T15:08:45.788Z,184.23
2023-02-04T15:11:14.191Z,204.47
2023-02-04T15:13:43.986Z,165.10
2023-02-04T15:16:14.458Z,192.10
2023-02-04T15:18:43.303Z,196.67
2023-02-04T15:21:11.779Z,160.63
2023-02-04T15:23:40.251Z,166.47
2023-02-04T15:26:08.669Z,190.03
2023-02-04T15:28:37.290Z,167.50
2023-02-04T15:31:07.403Z,187.33
2023-02-04T15:33:35.871Z,188.10
2023-02-04T15:36:04.302Z,164.80
2023-02-04T15:38:32.717Z,172.60
2023-02-04T15:41:01.536Z,174.67
2023-02-04T15:43:29.956Z,170.43
2023-02-04T15:45:58.428Z,171.30
2023-02-04T15:48:28.592Z,183.97
2023-02-04T15:50:57.186Z,175.70
2023-02-04T15:53:25.568Z,168.43
2023-02-04T15:55:54.116Z,178.20
2023-02-04T15:58:22.681Z,162.13
2023-02-04T16:00:51.055Z,160.87
2023-02-04T16:03:19.703Z,164.17
2023-02-04T16:05:49.524Z,175.10
2023-02-04T16:08:17.931Z,151.63
2023-02-04T16:10:46.329Z,155.87
2023-02-04T16:13:14.745Z,165.03
2023-02-04T16:15:44.046Z,160.40
2023-02-04T16:18:12.497Z,162.07
2023-02-04T16:20:40.936Z,159.23
2023-02-04T16:23:10.713Z,153.63
2023-02-04T16:25:39.115Z,148.17
2023-02-04T16:28:07.553Z,160.37
2023-02-04T16:30:35.990Z,146.90
2023-02-04T16:33:04.441Z,162.27
2023-02-04T16:35:33.404Z,155.90
2023-02-04T16:38:02.022Z,165.70
2023-02-04T16:40:32.059Z,148.60
2023-02-04T16:43:01.280Z,160.70
2023-02-04T16:45:29.673Z,157.60
2023-02-04T16:47:58.062Z,150.40
2023-02-04T16:50:26.497Z,156.27
2023-02-04T16:52:54.899Z,162.27
2023-02-04T16:55:23.300Z,160.97
2023-02-04T16:57:53.132Z,152.80
2023-02-04T17:00:21.988Z,171.20
2023-02-04T17:02:50.625Z,161.03
2023-02-04T17:05:19.608Z,154.20
2023-02-04T17:07:47.976Z,148.30
2023-02-04T17:10:16.386Z,153.87
2023-02-04T17:12:44.786Z,207.90
2023-02-04T17:15:14.812Z,212.10
2023-02-04T17:17:43.218Z,207.50
2023-02-04T17:20:12.251Z,178.77
2023-02-04T17:22:40.664Z,184.60
2023-02-04T17:25:09.249Z,176.73
2023-02-04T17:27:37.648Z,183.70
2023-02-04T17:30:06.348Z,164.93
2023-02-04T17:32:36.616Z,165.03
2023-02-04T17:35:05.142Z,152.70
2023-02-04T17:37:33.540Z,142.57
2023-02-04T17:40:01.972Z,126.60
2023-02-04T17:42:30.439Z,103.83
2023-02-04T17:44:58.850Z,89.77
2023-02-04T17:47:27.281Z,80.47
2023-02-04T17:49:57.267Z,57.60
2023-02-04T17:52:26.675Z,40.20
2023-02-04T17:54:55.049Z,17.50
2023-02-04T17:57:23.520Z,14.50
2023-02-04T17:59:51.942Z,8.50
2023-02-04T18:02:25.496Z,6.27
2023-02-04T18:04:55.100Z,5.27
2023-02-04T18:07:24.976Z,3.47
2023-02-04T18:09:53.473Z,3.20
2023-02-04T18:12:22.436Z,3.07
2023-02-04T18:14:51.004Z,4.37
2023-02-04T18:17:19.472Z,2.37
2023-02-04T18:19:47.893Z,4.83
2023-02-04T18:22:17.280Z,3.00
2023-02-04T18:24:48.986Z,3.40
2023-02-04T18:27:18.868Z,2.97
2023-02-04T18:29:49.442Z,2.20
2023-02-04T18:32:19.958Z,2.70
2023-02-04T18:34:49.186Z,2.10
2023-02-04T18:37:25.257Z,3.43
2023-02-04T18:39:56.990Z,2.37
2023-02-04T18:42:27.395Z,1.60
2023-02-04T18:44:56.910Z,2.27
2023-02-04T18:47:31.741Z,3.93
2023-02-04T18:50:01.338Z,2.30
2023-02-04T18:52:37.425Z,3.73
2023-02-04T18:55:15.976Z,2.27
2023-02-04T18:57:44.600Z,1.90
2023-02-04T19:00:32.191Z,3.43
2023-02-04T19:03:01.544Z,4.10
2023-02-04T19:05:32.027Z,2.13
2023-02-04T19:08:14.792Z,1.67
2023-02-04T19:10:44.837Z,2.70
2023-02-04T19:13:17.917Z,2.90
2023-02-04T19:15:46.916Z,1.70
2023-02-04T19:18:24.009Z,3.10
2023-02-04T19:20:52.431Z,2.27
2023-02-04T19:23:21.657Z,3.90
2023-02-04T19:25:51.918Z,6.90
2023-02-04T19:28:30.572Z,3.23
2023-02-04T19:31:03.205Z,2.17
2023-02-04T19:33:34.448Z,2.60
2023-02-04T19:36:12.908Z,3.53
2023-02-04T19:38:43.103Z,2.43
2023-02-04T19:41:27.633Z,3.60
2023-02-04T19:44:08.150Z,2.97
2023-02-04T19:46:36.589Z,4.60
2023-02-04T19:49:12.268Z,3.70
2023-02-04T19:51:41.882Z,4.53
2023-02-04T19:54:17.391Z,3.27
2023-02-04T19:56:47.513Z,2.03
2023-02-04T19:59:25.017Z,3.67
2023-02-04T20:01:55.696Z,3.60
2023-02-04T20:04:24.081Z,3.97
2023-02-04T20:06:52.512Z,3.23
2023-02-04T20:09:23.040Z,3.47
2023-02-04T20:12:06.054Z,2.33
2023-02-04T20:14:52.622Z,2.57
2023-02-04T20:17:22.687Z,1.80
2023-02-04T20:19:51.332Z,3.33
2023-02-04T20:22:38.514Z,3.70
2023-02-04T20:25:24.597Z,3.10
2023-02-04T20:27:57.204Z,5.10
2023-02-04T20:30:27.822Z,4.00
2023-02-04T20:32:57.324Z,3.90
2023-02-04T20:35:43.378Z,6.37
2023-02-04T20:38:13.286Z,4.13
2023-02-04T20:40:42.691Z,5.73
2023-02-04T20:43:13.867Z,3.27
2023-02-04T20:45:44.784Z,2.73
2023-02-04T20:48:27.284Z,3.93
2023-02-04T20:50:55.971Z,2.77
2023-02-04T20:53:25.345Z,3.93
2023-02-04T20:55:55.030Z,8.60
2023-02-04T20:58:25.673Z,2.77
2023-02-04T21:00:55.804Z,3.57
2023-02-04T21:03:28.331Z,2.10
2023-02-04T21:05:57.360Z,3.93
2023-02-04T21:08:37.279Z,3.53
2023-02-04T21:11:06.365Z,4.13
2023-02-04T21:13:36.662Z,3.40
2023-02-04T21:16:05.549Z,6.67
2023-02-04T21:18:35.014Z,2.17
2023-02-04T21:21:04.092Z,3.23
2023-02-04T21:23:32.711Z,10.57
2023-02-04T21:26:01.122Z,2.83
2023-02-04T21:28:30.655Z,3.07
2023-02-04T21:31:00.738Z,3.70
2023-02-04T21:33:29.427Z,4.37
2023-02-04T21:35:57.890Z,6.33
2023-02-04T21:38:26.336Z,5.20
2023-02-04T21:40:54.730Z,4.20
2023-02-04T21:43:23.130Z,1.90
2023-02-04T21:45:51.739Z,4.33
2023-02-04T21:48:21.581Z,5.47
2023-02-04T21:50:49.989Z,2.37
2023-02-04T21:53:18.415Z,5.07
2023-02-04T21:55:46.844Z,4.07
2023-02-04T21:58:15.250Z,4.50
2023-02-04T22:00:43.709Z,3.73
2023-02-04T22:03:15.777Z,9.17
2023-02-04T22:05:46.051Z,6.60
2023-02-04T22:08:14.741Z,5.60
2023-02-04T22:10:43.147Z,4.10
2023-02-04T22:13:11.632Z,3.43
2023-02-04T22:15:40.203Z,5.33
2023-02-04T22:18:08.591Z,6.63
2023-02-04T22:20:39.216Z,5.40
2023-02-04T22:23:09.274Z,5.67
2023-02-04T22:25:37.705Z,7.70
2023-02-04T22:28:06.150Z,7.13
2023-02-04T22:30:34.649Z,3.40
2023-02-04T22:33:03.078Z,5.97
2023-02-04T22:35:35.164Z,5.30
2023-02-04T22:38:03.859Z,5.50
2023-02-04T22:40:33.620Z,6.93
2023-02-04T22:43:02.198Z,5.30
2023-02-04T22:45:30.645Z,5.70
2023-02-04T22:47:59.073Z,5.03
2023-02-04T22:50:27.460Z,6.90
2023-02-04T22:52:55.908Z,7.93
2023-02-04T22:55:24.299Z,6.90
2023-02-04T22:57:54.150Z,9.33
2023-02-04T23:00:22.685Z,5.27
2023-02-04T23:02:51.071Z,4.27
2023-02-04T23:05:19.584Z,7.67
2023-02-04T23:07:47.984Z,4.07
2023-02-04T23:10:16.399Z,5.37
2023-02-04T23:12:44.858Z,6.70
2023-02-04T23:15:15.345Z,5.03
2023-02-04T23:17:43.755Z,7.13
2023-02-04T23:20:12.430Z,8.73
2023-02-04T23:22:41.625Z,8.03
2023-02-04T23:25:10.264Z,5.67
2023-02-04T23:27:38.690Z,6.03
2023-02-04T23:30:07.666Z,5.37
2023-02-04T23:32:37.427Z,5.40
2023-02-04T23:35:06.524Z,4.07
2023-02-04T23:37:35.323Z,5.27
2023-02-04T23:40:03.791Z,2.90
2023-02-04T23:42:32.427Z,4.73
2023-02-04T23:45:00.961Z,6.43
2023-02-04T23:47:29.367Z,5.67
2023-02-04T23:49:59.161Z,7.93
2023-02-04T23:52:27.599Z,5.37
2023-02-04T23:54:55.979Z,4.80
2023-02-04T23:57:24.391Z,5.83
2023-02-04T23:59:52.850Z,4.83
